sensor_id;sensor_type;location;lat;lon;timestamp;P1;durP1;ratioP1;P2;durP2;ratioP2
5209;SDS011;2624;48.048;11.706;2023-01-19T00:02:26;3.07;;;1.80;;
5209;SDS011;2624;48.048;11.706;2023-01-19T00:07:30;3.30;;;2.53;;
5209;SDS011;2624;48.048;11.706;2023-01-19T00:12:31;6.67;;;2.40;;
5209;SDS011;2624;48.048;11.706;2023-01-19T00:17:33;5.83;;;4.50;;
5209;SDS011;2624;48.048;11.706;2023-01-19T00:22:36;5.90;;;4.60;;
5209;SDS011;2624;48.048;11.706;2023-01-19T00:27:38;1.53;;;1.43;;
5209;SDS011;2624;48.048;11.706;2023-01-19T00:32:40;8.40;;;3.20;;
5209;SDS011;2624;48.048;11.706;2023-01-19T00:37:43;4.33;;;3.93;;
5209;SDS011;2624;48.048;11.706;2023-01-19T00:42:45;4.83;;;3.67;;
5209;SDS011;2624;48.048;11.706;2023-01-19T00:47:48;3.70;;;3.17;;
5209;SDS011;2624;48.048;11.706;2023-01-19T00:52:55;4.50;;;4.10;;
5209;SDS011;2624;48.048;11.706;2023-01-19T00:57:59;7.47;;;4.50;;
5209;SDS011;2624;48.048;11.706;2023-01-19T01:03:01;8.97;;;5.30;;
5209;SDS011;2624;48.048;11.706;2023-01-19T01:08:05;17.00;;;3.03;;
5209;SDS011;2624;48.048;11.706;2023-01-19T01:13:06;7.37;;;3.40;;
5209;SDS011;2624;48.048;11.706;2023-01-19T01:18:08;6.37;;;4.30;;
5209;SDS011;2624;48.048;11.706;2023-01-19T01:23:11;3.90;;;2.30;;
5209;SDS011;2624;48.048;11.706;2023-01-19T01:28:14;11.80;;;4.37;;
5209;SDS011;2624;48.048;11.706;2023-01-19T01:33:15;4.97;;;3.50;;
5209;SDS011;2624;48.048;11.706;2023-01-19T01:38:18;5.87;;;3.70;;
5209;SDS011;2624;48.048;11.706;2023-01-19T01:43:20;6.57;;;3.30;;
5209;SDS011;2624;48.048;11.706;2023-01-19T01:48:23;3.50;;;2.77;;
5209;SDS011;2624;48.048;11.706;2023-01-19T01:53:28;7.97;;;3.50;;
5209;SDS011;2624;48.048;11.706;2023-01-19T01:58:32;3.80;;;3.40;;
5209;SDS011;2624;48.048;11.706;2023-01-19T02:03:36;6.47;;;3.67;;
5209;SDS011;2624;48.048;11.706;2023-01-19T02:08:41;5.70;;;2.83;;
5209;SDS011;2624;48.048;11.706;2023-01-19T02:14:05;3.17;;;2.87;;
5209;SDS011;2624;48.048;11.706;2023-01-19T02:19:07;7.70;;;4.20;;
5209;SDS011;2624;48.048;11.706;2023-01-19T02:24:14;6.30;;;3.20;;
5209;SDS011;2624;48.048;11.706;2023-01-19T02:29:17;5.63;;;3.70;;
5209;SDS011;2624;48.048;11.706;2023-01-19T02:34:20;7.10;;;3.83;;
5209;SDS011;2624;48.048;11.706;2023-01-19T02:39:26;4.73;;;2.97;;
5209;SDS011;2624;48.048;11.706;2023-01-19T02:44:30;2.33;;;2.10;;
5209;SDS011;2624;48.048;11.706;2023-01-19T02:49:33;4.43;;;3.10;;
5209;SDS011;2624;48.048;11.706;2023-01-19T02:54:38;5.47;;;2.80;;
5209;SDS011;2624;48.048;11.706;2023-01-19T02:59:52;3.90;;;3.10;;
5209;SDS011;2624;48.048;11.706;2023-01-19T03:05:07;3.77;;;2.77;;
5209;SDS011;2624;48.048;11.706;2023-01-19T03:10:21;2.20;;;1.53;;
5209;SDS011;2624;48.048;11.706;2023-01-19T03:15:33;2.70;;;2.47;;
5209;SDS011;2624;48.048;11.706;2023-01-19T03:20:40;3.27;;;2.43;;
5209;SDS011;2624;48.048;11.706;2023-01-19T03:25:45;3.33;;;2.50;;
5209;SDS011;2624;48.048;11.706;2023-01-19T03:30:51;2.70;;;2.50;;
5209;SDS011;2624;48.048;11.706;2023-01-19T03:35:59;2.20;;;1.97;;
5209;SDS011;2624;48.048;11.706;2023-01-19T03:41:05;2.47;;;1.80;;
5209;SDS011;2624;48.048;11.706;2023-01-19T03:46:11;2.00;;;1.90;;
5209;SDS011;2624;48.048;11.706;2023-01-19T03:51:16;2.23;;;1.73;;
5209;SDS011;2624;48.048;11.706;2023-01-19T03:56:20;2.20;;;2.00;;
5209;SDS011;2624;48.048;11.706;2023-01-19T04:01:23;2.93;;;2.10;;
5209;SDS011;2624;48.048;11.706;2023-01-19T04:06:25;2.87;;;2.20;;
5209;SDS011;2624;48.048;11.706;2023-01-19T04:11:28;1.67;;;1.60;;
5209;SDS011;2624;48.048;11.706;2023-01-19T04:16:30;3.20;;;2.47;;
5209;SDS011;2624;48.048;11.706;2023-01-19T04:21:32;5.40;;;2.40;;
5209;SDS011;2624;48.048;11.706;2023-01-19T04:26:35;2.40;;;2.17;;
5209;SDS011;2624;48.048;11.706;2023-01-19T04:31:37;4.17;;;2.40;;
5209;SDS011;2624;48.048;11.706;2023-01-19T04:36:39;2.13;;;1.93;;
5209;SDS011;2624;48.048;11.706;2023-01-19T04:41:42;3.10;;;2.47;;
5209;SDS011;2624;48.048;11.706;2023-01-19T04:46:43;4.90;;;2.30;;
5209;SDS011;2624;48.048;11.706;2023-01-19T04:51:45;3.33;;;2.10;;
5209;SDS011;2624;48.048;11.706;2023-01-19T04:56:49;3.70;;;2.10;;
5209;SDS011;2624;48.048;11.706;2023-01-19T05:01:50;1.87;;;1.77;;
5209;SDS011;2624;48.048;11.706;2023-01-19T05:06:52;2.37;;;2.27;;
5209;SDS011;2624;48.048;11.706;2023-01-19T05:11:56;5.70;;;3.50;;
5209;SDS011;2624;48.048;11.706;2023-01-19T05:16:58;5.07;;;2.70;;
5209;SDS011;2624;48.048;11.706;2023-01-19T05:22:02;4.93;;;2.57;;
5209;SDS011;2624;48.048;11.706;2023-01-19T05:27:05;2.20;;;1.97;;
5209;SDS011;2624;48.048;11.706;2023-01-19T05:32:07;4.67;;;3.30;;
5209;SDS011;2624;48.048;11.706;2023-01-19T05:37:09;3.43;;;2.67;;
5209;SDS011;2624;48.048;11.706;2023-01-19T05:42:12;5.10;;;3.13;;
5209;SDS011;2624;48.048;11.706;2023-01-19T05:47:13;15.30;;;3.33;;
5209;SDS011;2624;48.048;11.706;2023-01-19T05:52:15;2.97;;;2.80;;
5209;SDS011;2624;48.048;11.706;2023-01-19T05:57:18;3.97;;;2.60;;
5209;SDS011;2624;48.048;11.706;2023-01-19T06:02:20;2.80;;;2.57;;
5209;SDS011;2624;48.048;11.706;2023-01-19T06:07:27;2.73;;;2.53;;
5209;SDS011;2624;48.048;11.706;2023-01-19T06:12:30;8.00;;;2.93;;
5209;SDS011;2624;48.048;11.706;2023-01-19T06:17:32;2.67;;;2.47;;
5209;SDS011;2624;48.048;11.706;2023-01-19T06:22:34;4.37;;;2.50;;
5209;SDS011;2624;48.048;11.706;2023-01-19T06:27:37;3.87;;;3.40;;
5209;SDS011;2624;48.048;11.706;2023-01-19T06:32:43;4.40;;;3.27;;
5209;SDS011;2624;48.048;11.706;2023-01-19T06:37:44;3.13;;;2.93;;
5209;SDS011;2624;48.048;11.706;2023-01-19T06:42:48;7.60;;;3.73;;
5209;SDS011;2624;48.048;11.706;2023-01-19T06:47:50;6.10;;;3.20;;
5209;SDS011;2624;48.048;11.706;2023-01-19T06:52:52;6.03;;;4.13;;
5209;SDS011;2624;48.048;11.706;2023-01-19T06:57:58;8.13;;;4.87;;
5209;SDS011;2624;48.048;11.706;2023-01-19T07:03:00;7.37;;;3.93;;
5209;SDS011;2624;48.048;11.706;2023-01-19T07:08:02;2.87;;;2.60;;
5209;SDS011;2624;48.048;11.706;2023-01-19T07:13:05;5.80;;;2.40;;
5209;SDS011;2624;48.048;11.706;2023-01-19T07:18:07;5.20;;;3.50;;
5209;SDS011;2624;48.048;11.706;2023-01-19T07:23:09;5.00;;;3.70;;
5209;SDS011;2624;48.048;11.706;2023-01-19T07:28:12;11.97;;;4.80;;
5209;SDS011;2624;48.048;11.706;2023-01-19T07:33:15;7.33;;;4.30;;
5209;SDS011;2624;48.048;11.706;2023-01-19T07:38:17;6.93;;;4.90;;
5209;SDS011;2624;48.048;11.706;2023-01-19T07:43:20;7.60;;;4.10;;
5209;SDS011;2624;48.048;11.706;2023-01-19T07:48:22;7.50;;;3.50;;
5209;SDS011;2624;48.048;11.706;2023-01-19T07:53:24;7.90;;;4.40;;
5209;SDS011;2624;48.048;11.706;2023-01-19T07:58:27;4.10;;;3.23;;
5209;SDS011;2624;48.048;11.706;2023-01-19T08:03:29;8.70;;;4.20;;
5209;SDS011;2624;48.048;11.706;2023-01-19T08:08:31;4.20;;;3.50;;
5209;SDS011;2624;48.048;11.706;2023-01-19T08:13:35;5.60;;;4.20;;
5209;SDS011;2624;48.048;11.706;2023-01-19T08:18:36;7.87;;;4.33;;
5209;SDS011;2624;48.048;11.706;2023-01-19T08:23:38;6.97;;;4.20;;
5209;SDS011;2624;48.048;11.706;2023-01-19T08:28:41;6.83;;;3.37;;
5209;SDS011;2624;48.048;11.706;2023-01-19T08:33:43;3.17;;;2.47;;
5209;SDS011;2624;48.048;11.706;2023-01-19T08:38:45;6.67;;;3.23;;
5209;SDS011;2624;48.048;11.706;2023-01-19T08:43:48;7.13;;;3.53;;
5209;SDS011;2624;48.048;11.706;2023-01-19T08:48:50;5.80;;;4.03;;
5209;SDS011;2624;48.048;11.706;2023-01-19T08:53:52;11.67;;;4.47;;
5209;SDS011;2624;48.048;11.706;2023-01-19T08:58:55;7.70;;;3.50;;
5209;SDS011;2624;48.048;11.706;2023-01-19T09:03:56;5.77;;;3.30;;
5209;SDS011;2624;48.048;11.706;2023-01-19T09:08:58;5.50;;;3.47;;
5209;SDS011;2624;48.048;11.706;2023-01-19T09:14:01;9.13;;;3.90;;
5209;SDS011;2624;48.048;11.706;2023-01-19T09:19:04;5.23;;;3.47;;
5209;SDS011;2624;48.048;11.706;2023-01-19T09:24:07;4.40;;;3.53;;
5209;SDS011;2624;48.048;11.706;2023-01-19T09:29:10;7.80;;;3.93;;
5209;SDS011;2624;48.048;11.706;2023-01-19T09:34:12;7.70;;;3.77;;
5209;SDS011;2624;48.048;11.706;2023-01-19T09:39:14;4.67;;;3.20;;
5209;SDS011;2624;48.048;11.706;2023-01-19T09:44:19;4.50;;;2.90;;
5209;SDS011;2624;48.048;11.706;2023-01-19T09:49:29;6.77;;;3.00;;
5209;SDS011;2624;48.048;11.706;2023-01-19T09:54:35;18.20;;;3.50;;
5209;SDS011;2624;48.048;11.706;2023-01-19T09:59:44;9.40;;;3.70;;
5209;SDS011;2624;48.048;11.706;2023-01-19T10:04:52;6.03;;;3.47;;
5209;SDS011;2624;48.048;11.706;2023-01-19T10:10:04;5.20;;;3.20;;
5209;SDS011;2624;48.048;11.706;2023-01-19T10:15:16;3.27;;;2.97;;
5209;SDS011;2624;48.048;11.706;2023-01-19T10:20:27;4.23;;;2.67;;
5209;SDS011;2624;48.048;11.706;2023-01-19T10:25:32;6.50;;;4.17;;
5209;SDS011;2624;48.048;11.706;2023-01-19T10:30:36;8.07;;;4.37;;
5209;SDS011;2624;48.048;11.706;2023-01-19T10:35:37;8.10;;;3.90;;
5209;SDS011;2624;48.048;11.706;2023-01-19T10:40:41;3.20;;;2.90;;
5209;SDS011;2624;48.048;11.706;2023-01-19T10:45:50;7.40;;;3.40;;
5209;SDS011;2624;48.048;11.706;2023-01-19T10:50:59;5.53;;;2.67;;
5209;SDS011;2624;48.048;11.706;2023-01-19T10:56:10;5.70;;;2.73;;
5209;SDS011;2624;48.048;11.706;2023-01-19T11:01:16;3.87;;;2.87;;
5209;SDS011;2624;48.048;11.706;2023-01-19T11:06:23;4.97;;;3.10;;
5209;SDS011;2624;48.048;11.706;2023-01-19T11:11:27;10.63;;;4.40;;
5209;SDS011;2624;48.048;11.706;2023-01-19T11:16:43;2.67;;;2.47;;
5209;SDS011;2624;48.048;11.706;2023-01-19T11:21:48;4.27;;;3.20;;
5209;SDS011;2624;48.048;11.706;2023-01-19T11:26:53;12.40;;;2.87;;
5209;SDS011;2624;48.048;11.706;2023-01-19T11:32:18;4.20;;;2.80;;
5209;SDS011;2624;48.048;11.706;2023-01-19T11:37:25;2.10;;;1.90;;
5209;SDS011;2624;48.048;11.706;2023-01-19T11:42:29;5.77;;;3.70;;
5209;SDS011;2624;48.048;11.706;2023-01-19T11:47:37;4.30;;;2.93;;
5209;SDS011;2624;48.048;11.706;2023-01-19T11:52:41;2.10;;;2.00;;
5209;SDS011;2624;48.048;11.706;2023-01-19T11:57:47;7.00;;;3.70;;
5209;SDS011;2624;48.048;11.706;2023-01-19T12:02:53;5.37;;;4.10;;
5209;SDS011;2624;48.048;11.706;2023-01-19T12:07:59;5.17;;;3.70;;
5209;SDS011;2624;48.048;11.706;2023-01-19T12:13:03;5.43;;;2.90;;
5209;SDS011;2624;48.048;11.706;2023-01-19T12:18:09;5.63;;;4.00;;
5209;SDS011;2624;48.048;11.706;2023-01-19T12:23:17;3.23;;;2.87;;
5209;SDS011;2624;48.048;11.706;2023-01-19T12:28:31;3.23;;;2.57;;
5209;SDS011;2624;48.048;11.706;2023-01-19T12:33:40;6.13;;;3.37;;
5209;SDS011;2624;48.048;11.706;2023-01-19T12:38:43;4.40;;;3.60;;
5209;SDS011;2624;48.048;11.706;2023-01-19T12:43:47;2.77;;;2.57;;
5209;SDS011;2624;48.048;11.706;2023-01-19T12:49:26;1.10;;;1.10;;
5209;SDS011;2624;48.048;11.706;2023-01-19T12:54:30;4.23;;;2.33;;
5209;SDS011;2624;48.048;11.706;2023-01-19T12:59:33;4.13;;;2.50;;
5209;SDS011;2624;48.048;11.706;2023-01-19T13:04:38;2.60;;;2.40;;
5209;SDS011;2624;48.048;11.706;2023-01-19T13:09:40;6.30;;;2.40;;
5209;SDS011;2624;48.048;11.706;2023-01-19T13:14:42;3.80;;;2.13;;
5209;SDS011;2624;48.048;11.706;2023-01-19T13:19:50;2.07;;;1.77;;
5209;SDS011;2624;48.048;11.706;2023-01-19T13:25:04;2.10;;;1.90;;
5209;SDS011;2624;48.048;11.706;2023-01-19T13:30:11;2.30;;;1.90;;
5209;SDS011;2624;48.048;11.706;2023-01-19T13:35:18;7.67;;;1.73;;
5209;SDS011;2624;48.048;11.706;2023-01-19T13:40:23;2.03;;;1.80;;
5209;SDS011;2624;48.048;11.706;2023-01-19T13:45:31;2.20;;;1.90;;
5209;SDS011;2624;48.048;11.706;2023-01-19T13:50:38;4.30;;;1.90;;
5209;SDS011;2624;48.048;11.706;2023-01-19T13:55:41;2.33;;;1.97;;
5209;SDS011;2624;48.048;11.706;2023-01-19T14:00:44;3.03;;;2.17;;
5209;SDS011;2624;48.048;11.706;2023-01-19T14:05:49;4.00;;;2.07;;
5209;SDS011;2624;48.048;11.706;2023-01-19T14:10:59;1.40;;;1.30;;
5209;SDS011;2624;48.048;11.706;2023-01-19T14:16:03;1.90;;;1.80;;
5209;SDS011;2624;48.048;11.706;2023-01-19T14:21:08;4.20;;;1.20;;
5209;SDS011;2624;48.048;11.706;2023-01-19T14:32:09;3.30;;;1.90;;
5209;SDS011;2624;48.048;11.706;2023-01-19T14:37:19;3.20;;;1.70;;
5209;SDS011;2624;48.048;11.706;2023-01-19T14:42:23;1.63;;;1.57;;
5209;SDS011;2624;48.048;11.706;2023-01-19T14:47:32;1.90;;;1.80;;
5209;SDS011;2624;48.048;11.706;2023-01-19T14:52:38;2.10;;;1.60;;
5209;SDS011;2624;48.048;11.706;2023-01-19T14:57:42;3.40;;;2.40;;
5209;SDS011;2624;48.048;11.706;2023-01-19T15:02:43;2.20;;;1.90;;
5209;SDS011;2624;48.048;11.706;2023-01-19T15:07:47;3.23;;;2.70;;
5209;SDS011;2624;48.048;11.706;2023-01-19T15:12:49;1.60;;;1.50;;
5209;SDS011;2624;48.048;11.706;2023-01-19T15:17:52;4.00;;;1.80;;
5209;SDS011;2624;48.048;11.706;2023-01-19T15:22:55;4.60;;;2.40;;
5209;SDS011;2624;48.048;11.706;2023-01-19T15:27:57;1.53;;;1.47;;
5209;SDS011;2624;48.048;11.706;2023-01-19T15:32:59;6.57;;;1.87;;
5209;SDS011;2624;48.048;11.706;2023-01-19T15:38:02;3.23;;;2.17;;
5209;SDS011;2624;48.048;11.706;2023-01-19T15:43:04;2.03;;;1.87;;
5209;SDS011;2624;48.048;11.706;2023-01-19T15:48:06;2.87;;;1.43;;
5209;SDS011;2624;48.048;11.706;2023-01-19T15:53:12;4.97;;;1.90;;
5209;SDS011;2624;48.048;11.706;2023-01-19T15:58:15;1.13;;;1.13;;
5209;SDS011;2624;48.048;11.706;2023-01-19T16:03:19;1.40;;;1.30;;
5209;SDS011;2624;48.048;11.706;2023-01-19T16:08:22;1.43;;;1.40;;
5209;SDS011;2624;48.048;11.706;2023-01-19T16:13:24;12.80;;;1.60;;
5209;SDS011;2624;48.048;11.706;2023-01-19T16:18:29;1.53;;;1.43;;
5209;SDS011;2624;48.048;11.706;2023-01-19T16:23:32;1.60;;;1.50;;
5209;SDS011;2624;48.048;11.706;2023-01-19T16:28:34;1.77;;;1.57;;
5209;SDS011;2624;48.048;11.706;2023-01-19T16:33:37;0.50;;;0.50;;
5209;SDS011;2624;48.048;11.706;2023-01-19T16:38:40;2.43;;;1.80;;
5209;SDS011;2624;48.048;11.706;2023-01-19T16:43:42;8.10;;;2.10;;
5209;SDS011;2624;48.048;11.706;2023-01-19T16:48:44;1.77;;;1.27;;
5209;SDS011;2624;48.048;11.706;2023-01-19T16:53:48;4.27;;;2.17;;
5209;SDS011;2624;48.048;11.706;2023-01-19T16:58:51;2.47;;;1.70;;
5209;SDS011;2624;48.048;11.706;2023-01-19T17:03:53;4.47;;;2.00;;
5209;SDS011;2624;48.048;11.706;2023-01-19T17:08:57;1.47;;;1.47;;
5209;SDS011;2624;48.048;11.706;2023-01-19T17:13:59;2.43;;;2.27;;
5209;SDS011;2624;48.048;11.706;2023-01-19T17:19:03;2.07;;;0.97;;
5209;SDS011;2624;48.048;11.706;2023-01-19T17:24:07;4.07;;;2.43;;
5209;SDS011;2624;48.048;11.706;2023-01-19T17:29:09;1.50;;;1.50;;
5209;SDS011;2624;48.048;11.706;2023-01-19T17:34:11;3.00;;;1.43;;
5209;SDS011;2624;48.048;11.706;2023-01-19T17:39:14;6.47;;;3.90;;
5209;SDS011;2624;48.048;11.706;2023-01-19T17:44:17;4.37;;;3.20;;
5209;SDS011;2624;48.048;11.706;2023-01-19T17:49:19;7.13;;;4.80;;
5209;SDS011;2624;48.048;11.706;2023-01-19T17:54:22;4.43;;;2.70;;
5209;SDS011;2624;48.048;11.706;2023-01-19T17:59:24;6.77;;;2.33;;
5209;SDS011;2624;48.048;11.706;2023-01-19T18:04:25;2.33;;;2.13;;
5209;SDS011;2624;48.048;11.706;2023-01-19T18:09:29;4.37;;;2.60;;
5209;SDS011;2624;48.048;11.706;2023-01-19T18:14:30;4.53;;;4.00;;
5209;SDS011;2624;48.048;11.706;2023-01-19T18:19:32;5.50;;;3.13;;
5209;SDS011;2624;48.048;11.706;2023-01-19T18:24:35;4.60;;;3.27;;
5209;SDS011;2624;48.048;11.706;2023-01-19T18:29:37;2.57;;;2.33;;
5209;SDS011;2624;48.048;11.706;2023-01-19T18:34:39;4.63;;;3.87;;
5209;SDS011;2624;48.048;11.706;2023-01-19T18:39:42;6.23;;;3.80;;
5209;SDS011;2624;48.048;11.706;2023-01-19T18:44:44;4.50;;;4.03;;
5209;SDS011;2624;48.048;11.706;2023-01-19T18:49:45;23.60;;;6.33;;
5209;SDS011;2624;48.048;11.706;2023-01-19T18:54:48;23.27;;;7.10;;
5209;SDS011;2624;48.048;11.706;2023-01-19T18:59:50;22.07;;;6.27;;
5209;SDS011;2624;48.048;11.706;2023-01-19T19:04:52;12.60;;;4.83;;
5209;SDS011;2624;48.048;11.706;2023-01-19T19:09:55;14.90;;;3.83;;
5209;SDS011;2624;48.048;11.706;2023-01-19T19:14:57;7.23;;;3.97;;
5209;SDS011;2624;48.048;11.706;2023-01-19T19:19:59;3.23;;;2.57;;
5209;SDS011;2624;48.048;11.706;2023-01-19T19:25:02;12.63;;;2.93;;
5209;SDS011;2624;48.048;11.706;2023-01-19T19:30:04;7.33;;;3.53;;
5209;SDS011;2624;48.048;11.706;2023-01-19T19:35:07;3.33;;;3.03;;
5209;SDS011;2624;48.048;11.706;2023-01-19T19:40:12;3.97;;;2.80;;
5209;SDS011;2624;48.048;11.706;2023-01-19T19:45:14;13.30;;;3.67;;
5209;SDS011;2624;48.048;11.706;2023-01-19T19:50:16;4.70;;;3.07;;
5209;SDS011;2624;48.048;11.706;2023-01-19T19:55:19;7.70;;;2.30;;
5209;SDS011;2624;48.048;11.706;2023-01-19T20:00:21;4.40;;;2.53;;
5209;SDS011;2624;48.048;11.706;2023-01-19T20:05:23;3.87;;;2.43;;
5209;SDS011;2624;48.048;11.706;2023-01-19T20:10:26;4.93;;;3.27;;
5209;SDS011;2624;48.048;11.706;2023-01-19T20:15:29;5.67;;;2.73;;
5209;SDS011;2624;48.048;11.706;2023-01-19T20:20:31;2.33;;;2.20;;
5209;SDS011;2624;48.048;11.706;2023-01-19T20:25:36;4.70;;;2.20;;
5209;SDS011;2624;48.048;11.706;2023-01-19T20:30:39;2.70;;;2.17;;
5209;SDS011;2624;48.048;11.706;2023-01-19T20:35:41;11.10;;;3.33;;
5209;SDS011;2624;48.048;11.706;2023-01-19T20:40:44;2.53;;;2.33;;
5209;SDS011;2624;48.048;11.706;2023-01-19T20:45:46;4.10;;;2.30;;
5209;SDS011;2624;48.048;11.706;2023-01-19T20:50:48;4.43;;;2.37;;
5209;SDS011;2624;48.048;11.706;2023-01-19T20:55:51;4.40;;;2.50;;
5209;SDS011;2624;48.048;11.706;2023-01-19T21:00:53;2.90;;;2.47;;
5209;SDS011;2624;48.048;11.706;2023-01-19T21:05:55;2.53;;;2.27;;
5209;SDS011;2624;48.048;11.706;2023-01-19T21:10:58;4.30;;;3.40;;
5209;SDS011;2624;48.048;11.706;2023-01-19T21:16:00;7.17;;;3.97;;
5209;SDS011;2624;48.048;11.706;2023-01-19T21:21:02;12.47;;;3.93;;
5209;SDS011;2624;48.048;11.706;2023-01-19T21:26:05;6.00;;;3.13;;
5209;SDS011;2624;48.048;11.706;2023-01-19T21:31:08;7.17;;;2.37;;
5209;SDS011;2624;48.048;11.706;2023-01-19T21:36:11;6.53;;;3.60;;
5209;SDS011;2624;48.048;11.706;2023-01-19T21:41:14;5.00;;;2.90;;
5209;SDS011;2624;48.048;11.706;2023-01-19T21:46:17;7.93;;;2.77;;
5209;SDS011;2624;48.048;11.706;2023-01-19T21:51:21;7.63;;;2.23;;
5209;SDS011;2624;48.048;11.706;2023-01-19T21:56:24;2.90;;;2.67;;
5209;SDS011;2624;48.048;11.706;2023-01-19T22:01:27;2.63;;;1.83;;
5209;SDS011;2624;48.048;11.706;2023-01-19T22:06:29;3.43;;;1.70;;
5209;SDS011;2624;48.048;11.706;2023-01-19T22:11:32;1.93;;;1.63;;
5209;SDS011;2624;48.048;11.706;2023-01-19T22:16:34;6.37;;;2.23;;
5209;SDS011;2624;48.048;11.706;2023-01-19T22:21:35;4.37;;;2.13;;
5209;SDS011;2624;48.048;11.706;2023-01-19T22:26:38;3.40;;;1.87;;
5209;SDS011;2624;48.048;11.706;2023-01-19T22:31:40;3.37;;;1.77;;
5209;SDS011;2624;48.048;11.706;2023-01-19T22:36:42;8.17;;;4.17;;
5209;SDS011;2624;48.048;11.706;2023-01-19T22:41:45;7.90;;;3.40;;
5209;SDS011;2624;48.048;11.706;2023-01-19T22:46:47;5.80;;;3.90;;
5209;SDS011;2624;48.048;11.706;2023-01-19T22:51:50;7.43;;;3.50;;
5209;SDS011;2624;48.048;11.706;2023-01-19T22:56:54;11.10;;;3.13;;
5209;SDS011;2624;48.048;11.706;2023-01-19T23:01:56;7.13;;;3.17;;
5209;SDS011;2624;48.048;11.706;2023-01-19T23:06:58;11.27;;;2.97;;
5209;SDS011;2624;48.048;11.706;2023-01-19T23:12:01;2.50;;;2.30;;
5209;SDS011;2624;48.048;11.706;2023-01-19T23:17:03;2.90;;;2.57;;
5209;SDS011;2624;48.048;11.706;2023-01-19T23:22:04;4.40;;;2.10;;
5209;SDS011;2624;48.048;11.706;2023-01-19T23:27:07;5.30;;;3.10;;
5209;SDS011;2624;48.048;11.706;2023-01-19T23:32:10;4.50;;;2.90;;
5209;SDS011;2624;48.048;11.706;2023-01-19T23:37:12;2.97;;;2.77;;
5209;SDS011;2624;48.048;11.706;2023-01-19T23:42:15;2.03;;;1.87;;
5209;SDS011;2624;48.048;11.706;2023-01-19T23:47:17;5.40;;;3.00;;
5209;SDS011;2624;48.048;11.706;2023-01-19T23:52:19;6.50;;;3.27;;
5209;SDS011;2624;48.048;11.706;2023-01-19T23:57:22;4.83;;;3.33;;
